Time;durP1;ratioP1;P1;durP2;ratioP2;P2;SDS_P1;SDS_P2;PMS_P1;PMS_P2;Temp;Humidity;BMP_temperature;BMP_pressure;BME280_temperature;BME280_humidity;BME280_pressure;Samples;Min_cycle;Max_cycle;Signal;HPM_P1;HPM_P2
2023/05/23 00:02:22;;;;;;;1999.90;999.90;;;16.30;99.90;;;;;;5072427;28;20031;-73
2023/05/23 00:04:48;;;;;;;1999.90;999.90;;;16.30;99.90;;;;;;5073361;28;20029;-80
2023/05/23 00:07:13;;;;;;;1999.90;999.90;;;16.30;99.90;;;;;;5054905;28;20392;-80
2023/05/23 00:09:39;;;;;;;1999.90;999.90;;;16.30;99.90;;;;;;5072623;28;20043;-80
2023/05/23 00:12:05;;;;;;;1999.90;999.90;;;16.30;99.90;;;;;;5072114;28;20067;-73
2023/05/23 00:14:32;;;;;;;1999.90;999.90;;;16.30;99.90;;;;;;5072649;28;20021;-80
2023/05/23 00:16:59;;;;;;;1999.90;999.90;;;16.30;99.90;;;;;;5073225;28;20017;-73
2023/05/23 00:19:24;;;;;;;1999.90;999.90;;;16.30;99.90;;;;;;5073227;28;20028;-81
2023/05/23 00:21:52;;;;;;;1999.90;999.90;;;16.30;99.90;;;;;;5072761;28;20017;-81
2023/05/23 00:24:19;;;;;;;1999.90;999.90;;;16.30;99.90;;;;;;5072737;28;20399;-80
2023/05/23 00:26:45;;;;;;;1999.90;999.90;;;16.20;99.90;;;;;;5072907;28;20099;-73
2023/05/23 00:29:17;;;;;;;1999.90;999.90;;;16.20;99.90;;;;;;5073045;28;20178;-73
2023/05/23 00:31:46;;;;;;;1999.90;999.90;;;16.10;99.90;;;;;;5072457;28;20025;-80
2023/05/23 00:34:18;;;;;;;1999.90;999.90;;;16.10;99.90;;;;;;5072693;28;20042;-80
2023/05/23 00:36:46;;;;;;;1999.90;999.90;;;16.00;99.90;;;;;;5072683;28;20016;-80
2023/05/23 00:39:18;;;;;;;1999.90;999.90;;;16.00;99.90;;;;;;5072827;28;20025;-73
2023/05/23 00:41:48;;;;;;;1999.90;999.90;;;16.00;99.90;;;;;;5072740;28;20388;-73
2023/05/23 00:44:14;;;;;;;1999.90;999.90;;;15.90;99.90;;;;;;5072915;28;20129;-80
2023/05/23 00:46:42;;;;;;;1999.90;999.90;;;15.90;99.90;;;;;;5072587;28;20056;-80
2023/05/23 00:49:08;;;;;;;1999.90;999.90;;;15.80;99.90;;;;;;5073145;28;20143;-73
2023/05/23 00:51:35;;;;;;;1999.90;999.90;;;15.80;99.90;;;;;;5072622;28;20051;-73
2023/05/23 00:54:03;;;;;;;1999.90;999.90;;;15.80;99.90;;;;;;5072935;28;20025;-73
2023/05/23 00:56:29;;;;;;;1999.90;999.90;;;15.70;99.90;;;;;;5072532;28;20029;-80
2023/05/23 00:58:55;;;;;;;1999.90;999.90;;;15.70;99.90;;;;;;5071675;28;20016;-81
2023/05/23 01:01:21;;;;;;;1999.90;999.90;;;15.60;99.90;;;;;;5072321;28;20434;-80
2023/05/23 01:03:47;;;;;;;1999.90;999.90;;;15.60;99.90;;;;;;5072779;28;20442;-80
2023/05/23 01:06:15;;;;;;;1999.90;999.90;;;15.50;99.90;;;;;;5072595;28;20083;-73
2023/05/23 01:08:42;;;;;;;1999.90;999.90;;;15.50;99.90;;;;;;5073735;28;20747;-73
2023/05/23 01:11:28;;;;;;;1999.90;999.90;;;15.40;99.90;;;;;;5076253;28;20067;-80
2023/05/23 01:14:29;;;;;;;1999.90;999.90;;;15.40;99.90;;;;;;5075862;28;20028;-81
2023/05/23 01:17:02;;;;;;;1999.90;999.90;;;15.30;99.90;;;;;;5057592;28;20399;-81
2023/05/23 01:19:56;;;;;;;1999.90;999.90;;;15.30;99.90;;;;;;5076499;28;20051;-73
2023/05/23 01:22:31;;;;;;;1999.90;999.90;;;15.30;99.90;;;;;;5075357;28;20372;-80
2023/05/23 01:25:13;;;;;;;1999.90;999.90;;;15.30;99.90;;;;;;5076005;28;20027;-73
2023/05/23 01:27:47;;;;;;;1999.90;999.90;;;15.20;99.90;;;;;;5075985;28;20086;-79
2023/05/23 01:30:18;;;;;;;1999.90;999.90;;;15.20;99.90;;;;;;5075933;28;20024;-80
2023/05/23 01:32:46;;;;;;;1999.90;999.90;;;15.10;99.90;;;;;;5076030;28;20035;-81
2023/05/23 01:35:18;;;;;;;1999.90;999.90;;;15.10;99.90;;;;;;5075892;28;20099;-72
2023/05/23 01:37:45;;;;;;;1999.90;999.90;;;15.10;99.90;;;;;;5075498;28;20043;-80
2023/05/23 01:40:11;;;;;;;1999.90;999.90;;;15.00;99.90;;;;;;5075893;28;20025;-77
2023/05/23 01:42:36;;;;;;;1999.90;999.90;;;15.00;99.90;;;;;;5075901;28;20021;-80
2023/05/23 01:45:03;;;;;;;1999.90;999.90;;;14.90;99.90;;;;;;5075801;28;20032;-73
2023/05/23 01:47:28;;;;;;;1999.90;999.90;;;14.90;99.90;;;;;;5075570;28;20090;-73
2023/05/23 01:49:56;;;;;;;1999.90;999.90;;;14.90;99.90;;;;;;5075526;28;20037;-72
2023/05/23 01:52:22;;;;;;;1999.90;999.90;;;14.80;99.90;;;;;;5075684;28;20063;-80
2023/05/23 01:54:49;;;;;;;1999.90;999.90;;;14.80;99.90;;;;;;5075534;28;20529;-73
2023/05/23 01:57:15;;;;;;;1999.90;999.90;;;14.80;99.90;;;;;;5075462;28;20086;-73
2023/05/23 01:59:40;;;;;;;1999.90;999.90;;;14.80;99.90;;;;;;5074290;28;20064;-73
2023/05/23 02:02:06;;;;;;;1999.90;999.90;;;14.80;99.90;;;;;;5075210;28;20073;-80
2023/05/23 02:04:32;;;;;;;1999.90;999.90;;;14.80;99.90;;;;;;5075441;28;20399;-80
2023/05/23 02:06:58;;;;;;;1999.90;999.90;;;14.80;99.90;;;;;;5075262;28;20056;-80
2023/05/23 02:09:23;;;;;;;1999.90;999.90;;;14.70;99.90;;;;;;5075463;28;20415;-80
2023/05/23 02:11:49;;;;;;;1999.90;999.90;;;14.70;99.90;;;;;;5075033;28;20028;-72
2023/05/23 02:14:15;;;;;;;1999.90;999.90;;;14.60;99.90;;;;;;5075070;28;20032;-72
2023/05/23 02:16:40;;;;;;;1999.90;999.90;;;14.60;99.90;;;;;;5074975;28;20456;-80
2023/05/23 02:19:06;;;;;;;1999.90;999.90;;;14.50;99.90;;;;;;5075246;28;20025;-79
2023/05/23 02:21:31;;;;;;;1999.90;999.90;;;14.50;99.90;;;;;;5074336;28;20025;-80
2023/05/23 02:23:57;;;;;;;1999.90;999.90;;;14.50;99.90;;;;;;5074687;28;20035;-72
2023/05/23 02:26:23;;;;;;;1999.90;999.90;;;14.40;99.90;;;;;;5074953;28;20462;-72
2023/05/23 02:28:49;;;;;;;1999.90;999.90;;;14.40;99.90;;;;;;5075310;28;20069;-72
2023/05/23 02:31:16;;;;;;;1999.90;999.90;;;14.40;99.90;;;;;;5075182;28;20054;-80
2023/05/23 02:33:41;;;;;;;1999.90;999.90;;;14.40;99.90;;;;;;5074741;28;20032;-79
2023/05/23 02:36:07;;;;;;;1999.90;999.90;;;14.40;99.90;;;;;;5074700;28;20017;-72
2023/05/23 02:38:32;;;;;;;1999.90;999.90;;;14.40;99.90;;;;;;5074788;28;20467;-72
2023/05/23 02:40:59;;;;;;;1999.90;999.90;;;14.40;99.90;;;;;;5074675;28;20098;-80
2023/05/23 02:43:25;;;;;;;1999.90;999.90;;;14.40;99.90;;;;;;5074695;28;20452;-80
2023/05/23 02:45:50;;;;;;;1999.90;999.90;;;14.30;99.90;;;;;;5074193;28;20111;-80
2023/05/23 02:48:16;;;;;;;1999.90;999.90;;;14.30;99.90;;;;;;5074383;28;20032;-80
2023/05/23 02:50:42;;;;;;;1999.90;999.90;;;14.30;99.90;;;;;;5074775;28;20028;-72
2023/05/23 02:53:07;;;;;;;1999.90;999.90;;;14.30;99.90;;;;;;5074635;28;20083;-72
2023/05/23 02:55:33;;;;;;;1999.90;999.90;;;14.20;99.90;;;;;;5074298;28;20026;-80
2023/05/23 02:57:59;;;;;;;1999.90;999.90;;;14.20;99.90;;;;;;5074208;28;20028;-80
2023/05/23 03:00:25;;;;;;;1999.90;999.90;;;14.20;99.90;;;;;;5073351;28;20021;-79
2023/05/23 03:02:50;;;;;;;1999.90;999.90;;;14.20;99.90;;;;;;5074215;28;20021;-80
2023/05/23 03:05:16;;;;;;;1999.90;999.90;;;14.20;99.90;;;;;;5074583;28;20021;-72
2023/05/23 03:07:42;;;;;;;1999.90;999.90;;;14.20;99.90;;;;;;5073870;28;20106;-79
2023/05/23 03:10:08;;;;;;;1999.90;999.90;;;14.10;99.90;;;;;;5073899;28;20020;-80
2023/05/23 03:12:34;;;;;;;1999.90;999.90;;;14.10;99.90;;;;;;5073936;28;20480;-80
2023/05/23 03:15:00;;;;;;;1999.90;999.90;;;14.10;99.90;;;;;;5073884;28;20023;-72
2023/05/23 03:17:25;;;;;;;1999.90;999.90;;;14.00;99.90;;;;;;5074064;28;20098;-72
2023/05/23 03:19:51;;;;;;;1999.90;999.90;;;14.00;99.90;;;;;;5074001;28;20017;-80
2023/05/23 03:22:16;;;;;;;1999.90;999.90;;;14.00;99.90;;;;;;5074120;28;20392;-80
2023/05/23 03:24:42;;;;;;;1999.90;999.90;;;14.00;99.90;;;;;;5073803;28;20402;-80
2023/05/23 03:27:08;;;;;;;1999.90;999.90;;;14.00;99.90;;;;;;5073830;28;20087;-72
2023/05/23 03:29:34;;;;;;;1999.90;999.90;;;14.00;99.90;;;;;;5073696;28;20029;-72
2023/05/23 03:31:59;;;;;;;1999.90;999.90;;;14.00;99.90;;;;;;5072448;28;20035;-80
2023/05/23 03:34:26;;;;;;;1999.90;999.90;;;13.90;99.90;;;;;;5073699;28;20063;-72
2023/05/23 03:36:52;;;;;;;1999.90;999.90;;;13.90;99.90;;;;;;5073562;28;20023;-80
2023/05/23 03:39:17;;;;;;;1999.90;999.90;;;13.90;99.90;;;;;;5073371;28;20115;-79
2023/05/23 03:41:43;;;;;;;1999.90;999.90;;;13.90;99.90;;;;;;5073297;28;20060;-72
2023/05/23 03:44:09;;;;;;;1999.90;999.90;;;13.80;99.90;;;;;;5073424;28;20107;-72
2023/05/23 03:46:34;;;;;;;1999.90;999.90;;;13.80;99.90;;;;;;5073309;28;20078;-80
2023/05/23 03:49:00;;;;;;;1999.90;999.90;;;13.80;99.90;;;;;;5073201;28;20484;-80
2023/05/23 03:51:26;;;;;;;1999.90;999.90;;;13.80;99.90;;;;;;5073230;28;20103;-80
2023/05/23 03:53:52;;;;;;;1999.90;999.90;;;13.80;99.90;;;;;;5073622;28;20059;-72
2023/05/23 03:56:18;;;;;;;1999.90;999.90;;;13.80;99.90;;;;;;5073091;28;20095;-72
2023/05/23 03:58:43;;;;;;;1999.90;999.90;;;13.80;99.90;;;;;;5073193;28;20043;-72
2023/05/23 04:01:09;;;;;;;1999.90;999.90;;;13.70;99.90;;;;;;5072327;28;20109;-80
2023/05/23 04:03:35;;;;;;;1999.90;999.90;;;13.70;99.90;;;;;;5073210;28;20043;-79
2023/05/23 04:06:01;;;;;;;1999.90;999.90;;;13.70;99.90;;;;;;5073380;28;20062;-72
2023/05/23 04:08:28;;;;;;;1999.90;999.90;;;13.70;99.90;;;;;;5073149;28;20044;-72
2023/05/23 04:10:53;;;;;;;1999.90;999.90;;;13.70;99.90;;;;;;5073030;28;20534;-72
2023/05/23 04:13:20;;;;;;;1999.90;999.90;;;13.70;99.90;;;;;;5073165;28;20025;-80
2023/05/23 04:15:46;;;;;;;1999.90;999.90;;;13.60;99.90;;;;;;5072760;28;20024;-79
2023/05/23 04:18:13;;;;;;;1999.90;999.90;;;13.60;99.90;;;;;;5072948;28;20051;-79
2023/05/23 04:20:40;;;;;;;1999.90;999.90;;;13.60;99.90;;;;;;5072397;28;20551;-72
2023/05/23 04:23:05;;;;;;;1999.90;999.90;;;13.50;99.90;;;;;;5072870;28;20104;-79
2023/05/23 04:25:32;;;;;;;1999.90;999.90;;;13.50;99.90;;;;;;5072789;28;20067;-80
2023/05/23 04:27:58;;;;;;;1999.90;999.90;;;13.50;99.90;;;;;;5072614;28;20016;-80
2023/05/23 04:30:24;;;;;;;1999.90;999.90;;;13.50;99.90;;;;;;5073429;28;20029;-79
2023/05/23 04:32:51;;;;;;;1999.90;999.90;;;13.50;99.90;;;;;;5073151;28;20029;-80
2023/05/23 04:35:16;;;;;;;1999.90;999.90;;;13.50;99.90;;;;;;5073094;28;20021;-72
2023/05/23 04:37:44;;;;;;;1999.90;999.90;;;13.50;99.90;;;;;;5072726;28;20048;-78
2023/05/23 04:40:10;;;;;;;1999.90;999.90;;;13.50;99.90;;;;;;5072600;28;20023;-72
2023/05/23 04:42:36;;;;;;;1999.90;999.90;;;13.60;99.90;;;;;;5073267;28;20029;-72
2023/05/23 04:45:02;;;;;;;1999.90;999.90;;;13.60;99.90;;;;;;5076538;28;20041;-80
2023/05/23 04:47:28;;;;;;;1999.90;999.90;;;13.50;99.90;;;;;;5077104;28;20024;-72
2023/05/23 04:49:56;;;;;;;1999.90;999.90;;;13.60;99.90;;;;;;5056900;28;20037;-72
2023/05/23 04:52:22;;;;;;;1999.90;999.90;;;13.60;99.90;;;;;;5056962;28;20035;-80
2023/05/23 04:54:48;;;;;;;1999.90;999.90;;;13.60;99.90;;;;;;5056677;28;20033;-80
2023/05/23 04:57:14;;;;;;;1999.90;999.90;;;13.60;99.90;;;;;;5055946;28;20411;-80
2023/05/23 04:59:41;;;;;;;1999.90;999.90;;;13.60;99.90;;;;;;5056473;28;20079;-72
2023/05/23 05:02:08;;;;;;;1999.90;999.90;;;13.60;99.90;;;;;;5055421;28;20009;-72
2023/05/23 05:04:33;;;;;;;1999.90;999.90;;;13.60;99.90;;;;;;5056635;28;20361;-72
2023/05/23 05:06:59;;;;;;;1999.90;999.90;;;13.60;99.90;;;;;;5056674;28;20043;-80
2023/05/23 05:09:25;;;;;;;1999.90;999.90;;;13.70;99.90;;;;;;5069909;28;20033;-80
2023/05/23 05:11:50;;;;;;;1999.90;999.90;;;13.70;99.90;;;;;;5076290;28;20028;-72
2023/05/23 05:14:16;;;;;;;1999.90;999.90;;;13.70;99.90;;;;;;5076129;28;20107;-72
2023/05/23 05:16:42;;;;;;;1999.90;999.90;;;13.70;99.90;;;;;;5076227;28;20024;-80
2023/05/23 05:19:08;;;;;;;1999.90;999.90;;;13.70;99.90;;;;;;5076327;28;20024;-79
2023/05/23 05:21:33;;;;;;;1999.90;999.90;;;13.80;99.90;;;;;;5075766;28;20477;-79
2023/05/23 05:23:59;;;;;;;1999.90;999.90;;;13.80;99.90;;;;;;5075425;28;20415;-80
2023/05/23 05:26:25;;;;;;;1999.90;999.90;;;13.90;99.90;;;;;;5075929;28;20071;-73
2023/05/23 05:28:52;;;;;;;1999.90;999.90;;;13.90;99.90;;;;;;5076112;28;20029;-72
2023/05/23 05:31:17;;;;;;;1999.90;999.90;;;14.00;99.90;;;;;;5075997;28;20021;-72
2023/05/23 05:33:44;;;;;;;1999.90;999.90;;;14.00;99.90;;;;;;5075872;28;20403;-80
2023/05/23 05:36:10;;;;;;;1999.90;999.90;;;14.00;99.90;;;;;;5072444;28;20020;-79
2023/05/23 05:38:35;;;;;;;1999.90;999.90;;;14.00;99.90;;;;;;5075165;28;20035;-72
2023/05/23 05:41:01;;;;;;;1999.90;999.90;;;14.10;99.90;;;;;;5073894;28;20016;-72
2023/05/23 05:43:26;;;;;;;1999.90;999.90;;;14.10;99.90;;;;;;5075328;28;20104;-73
2023/05/23 05:45:52;;;;;;;1999.90;999.90;;;14.00;99.90;;;;;;5075227;28;20078;-72
2023/05/23 05:48:18;;;;;;;1999.90;999.90;;;14.10;99.90;;;;;;5075117;28;20032;-72
2023/05/23 05:50:44;;;;;;;1999.90;999.90;;;14.20;99.90;;;;;;5075131;28;20036;-72
2023/05/23 05:53:11;;;;;;;1999.90;999.90;;;14.20;99.90;;;;;;5075830;28;20033;-72
2023/05/23 05:55:37;;;;;;;1999.90;999.90;;;14.30;99.90;;;;;;5073547;28;20021;-79
2023/05/23 05:58:02;;;;;;;1999.90;999.90;;;14.30;99.90;;;;;;5074796;28;20046;-79
2023/05/23 06:00:29;;;;;;;1999.90;999.90;;;14.40;99.90;;;;;;5073588;28;20028;-80
2023/05/23 06:02:56;;;;;;;1999.90;999.90;;;14.40;99.90;;;;;;5072900;28;20020;-72
2023/05/23 06:05:22;;;;;;;1999.90;999.90;;;14.50;99.90;;;;;;5069911;28;20016;-80
2023/05/23 06:07:49;;;;;;;1999.90;999.90;;;14.50;99.90;;;;;;5072379;28;20518;-72
2023/05/23 06:10:15;;;;;;;1999.90;999.90;;;14.60;99.90;;;;;;5072941;28;20024;-80
2023/05/23 06:12:41;;;;;;;1999.90;999.90;;;14.70;99.90;;;;;;5071198;28;20428;-80
2023/05/23 06:15:08;;;;;;;1999.90;999.90;;;14.80;99.90;;;;;;5072103;28;20082;-80
2023/05/23 06:17:34;;;;;;;1999.90;999.90;;;14.90;99.90;;;;;;5074672;28;20135;-80
2023/05/23 06:20:00;;;;;;;1999.90;999.90;;;14.90;99.90;;;;;;5080651;28;20547;-73
2023/05/23 06:22:25;;;;;;;1999.90;999.90;;;15.10;99.90;;;;;;5056343;28;20396;-81
2023/05/23 06:24:51;;;;;;;1999.90;999.90;;;15.10;99.90;;;;;;5056515;28;20100;-81
2023/05/23 06:27:16;;;;;;;1999.90;999.90;;;15.20;99.90;;;;;;5067692;28;20036;-81
2023/05/23 06:29:42;;;;;;;1999.90;999.90;;;15.30;99.90;;;;;;5071334;28;20441;-74
2023/05/23 06:32:07;;;;;;;1999.90;999.90;;;15.30;99.90;;;;;;5063682;28;20033;-73
2023/05/23 06:34:33;;;;;;;1999.90;999.90;;;15.50;99.90;;;;;;5076961;28;20025;-81
2023/05/23 06:36:59;;;;;;;1999.90;999.90;;;15.60;99.90;;;;;;5068790;28;20403;-80
2023/05/23 06:39:24;;;;;;;1999.90;999.90;;;15.60;99.90;;;;;;5068802;28;20073;-73
2023/05/23 06:41:50;;;;;;;1999.90;999.90;;;15.70;99.90;;;;;;5069770;28;20024;-78
2023/05/23 06:44:15;;;;;;;1999.90;999.90;;;15.80;99.90;;;;;;5075678;28;20028;-73
2023/05/23 06:46:47;;;;;;;1999.90;999.90;;;16.00;99.90;;;;;;5069416;28;20035;-80
2023/05/23 06:49:13;;;;;;;1999.90;999.90;;;16.10;99.90;;;;;;5068484;28;20438;-80
2023/05/23 06:51:39;;;;;;;1999.90;999.90;;;16.20;99.90;;;;;;5065389;28;20536;-80
2023/05/23 06:54:05;;;;;;;1999.90;999.90;;;16.30;99.90;;;;;;5067445;28;20039;-80
2023/05/23 06:56:30;;;;;;;1999.90;999.90;;;16.40;99.90;;;;;;5071116;28;20036;-73
2023/05/23 06:58:56;;;;;;;1999.90;999.90;;;16.40;99.90;;;;;;5069916;28;20021;-73
2023/05/23 07:01:22;;;;;;;1999.90;999.90;;;16.60;99.90;;;;;;5076463;28;20029;-73
2023/05/23 07:03:47;;;;;;;1999.90;999.90;;;16.80;99.90;;;;;;5067724;28;20478;-80
2023/05/23 07:06:13;;;;;;;1999.90;999.90;;;17.00;99.90;;;;;;5066034;28;20032;-78
2023/05/23 07:08:38;;;;;;;1999.90;999.90;;;17.20;99.90;;;;;;5070311;28;20135;-73
2023/05/23 07:11:05;;;;;;;1999.90;999.90;;;17.30;99.90;;;;;;5069536;28;20032;-73
2023/05/23 07:13:31;;;;;;;1999.90;999.90;;;17.30;99.90;;;;;;5070623;28;20033;-80
2023/05/23 07:15:57;;;;;;;1999.90;999.90;;;17.30;99.90;;;;;;5070054;28;20024;-80
2023/05/23 07:18:23;;;;;;;1999.90;999.90;;;17.40;99.90;;;;;;5070044;28;20036;-81
2023/05/23 07:20:48;;;;;;;1999.90;999.90;;;17.50;99.90;;;;;;5069826;28;20425;-80
2023/05/23 07:23:14;;;;;;;1999.90;999.90;;;17.60;99.90;;;;;;5069707;28;20107;-74
2023/05/23 07:25:41;;;;;;;1999.90;999.90;;;17.70;99.90;;;;;;5070807;28;20037;-74
2023/05/23 07:28:07;;;;;;;1999.90;999.90;;;17.90;99.90;;;;;;5068945;28;20459;-74
2023/05/23 07:30:33;;;;;;;1999.90;999.90;;;18.00;99.90;;;;;;5071126;28;20028;-80
2023/05/23 07:32:59;;;;;;;1999.90;999.90;;;18.10;99.90;;;;;;5068634;28;20035;-80
2023/05/23 07:35:25;;;;;;;1999.90;999.90;;;18.20;99.90;;;;;;5068287;28;20418;-74
2023/05/23 07:37:54;;;;;;;1999.90;999.90;;;19.20;99.90;;;;;;5070003;28;20440;-74
2023/05/23 07:40:21;;;;;;;1999.90;999.90;;;20.40;99.90;;;;;;5063580;28;20070;-82
2023/05/23 07:42:47;;;;;;;1999.90;999.90;;;20.60;99.90;;;;;;5066078;28;20555;-82
2023/05/23 07:45:13;;;;;;;1999.90;999.90;;;20.80;99.90;;;;;;5056828;28;20148;-82
2023/05/23 07:47:39;;;;;;;1999.90;999.90;;;20.70;99.90;;;;;;5050655;28;20135;-77
2023/05/23 07:50:05;;;;;;;1999.90;999.90;;;20.50;99.90;;;;;;5060623;28;20016;-73
2023/05/23 07:52:31;;;;;;;1999.90;999.90;;;20.00;99.90;;;;;;5067779;28;20039;-80
2023/05/23 07:54:57;;;;;;;1999.90;999.90;;;20.00;99.90;;;;;;5067757;28;20570;-79
2023/05/23 07:57:23;;;;;;;1999.90;999.90;;;19.80;99.90;;;;;;5069791;28;20032;-71
2023/05/23 07:59:50;;;;;;;1999.90;999.90;;;20.20;99.90;;;;;;5070792;28;20074;-80
2023/05/23 08:02:16;;;;;;;1999.90;999.90;;;20.90;99.90;;;;;;5065478;28;20028;-73
2023/05/23 08:04:41;;;;;;;1999.90;999.90;;;20.80;99.90;;;;;;5070379;28;20025;-73
2023/05/23 08:07:08;;;;;;;1999.90;999.90;;;21.50;99.90;;;;;;5066776;28;20044;-80
2023/05/23 08:09:34;;;;;;;1999.90;999.90;;;22.50;99.90;;;;;;5062116;28;20032;-79
2023/05/23 08:12:00;;;;;;;1999.90;999.90;;;21.50;99.90;;;;;;5062418;28;20029;-78
2023/05/23 08:14:25;;;;;;;1999.90;999.90;;;20.80;99.90;;;;;;5057485;28;20365;-74
2023/05/23 08:16:51;;;;;;;1999.90;999.90;;;20.90;99.90;;;;;;5063309;28;20075;-74
2023/05/23 08:19:17;;;;;;;1999.90;999.90;;;20.60;99.90;;;;;;5065884;28;20029;-78
2023/05/23 08:21:43;;;;;;;1999.90;999.90;;;20.80;99.90;;;;;;5059315;28;20515;-78
2023/05/23 08:24:08;;;;;;;1999.90;999.90;;;20.60;99.90;;;;;;5069849;28;20492;-78
2023/05/23 08:26:35;;;;;;;1999.90;999.90;;;20.80;99.90;;;;;;5070195;28;20038;-74
2023/05/23 08:29:01;;;;;;;1999.90;999.90;;;21.60;99.90;;;;;;5064872;28;20021;-79
2023/05/23 08:31:30;;;;;;;1999.90;999.90;;;23.80;99.90;;;;;;5063237;28;20171;-75
2023/05/23 08:33:56;;;;;;;1999.90;999.90;;;23.30;99.90;;;;;;5051772;28;20035;-79
2023/05/23 08:36:22;;;;;;;1999.90;999.90;;;23.30;99.90;;;;;;5066813;28;20036;-75
2023/05/23 08:38:50;;;;;;;1999.90;999.90;;;24.10;99.90;;;;;;5068934;28;20426;-74
2023/05/23 08:41:21;;;;;;;1999.90;999.90;;;23.80;99.90;;;;;;5059817;28;20531;-74
2023/05/23 08:43:47;;;;;;;1999.90;999.90;;;24.60;99.90;;;;;;5069685;28;20024;-74
2023/05/23 08:46:14;;;;;;;1999.90;999.90;;;24.40;99.90;;;;;;5068701;28;20043;-75
2023/05/23 08:48:42;;;;;;;1999.90;999.90;;;23.80;99.90;;;;;;5062605;28;20043;-80
2023/05/23 08:51:13;;;;;;;1999.90;999.90;;;24.00;99.90;;;;;;5053062;28;20071;-80
2023/05/23 08:53:45;;;;;;;1999.90;999.90;;;24.00;99.90;;;;;;5061337;28;20048;-74
2023/05/23 08:56:11;;;;;;;1999.90;999.90;;;23.20;99.90;;;;;;5063043;28;20047;-74
2023/05/23 08:58:39;;;;;;;1999.90;999.90;;;21.90;99.90;;;;;;5057781;28;20039;-82
2023/05/23 09:01:05;;;;;;;1999.90;999.90;;;21.70;99.90;;;;;;5066522;28;20490;-75
2023/05/23 09:03:32;;;;;;;1999.90;999.90;;;21.30;99.90;;;;;;5067863;28;20103;-81
2023/05/23 09:05:58;;;;;;;1999.90;999.90;;;21.00;99.90;;;;;;5055310;28;20044;-74
2023/05/23 09:08:24;;;;;;;1999.90;999.90;;;20.80;99.90;;;;;;5069210;28;20485;-74
2023/05/23 09:10:50;;;;;;;1999.90;999.90;;;22.60;99.90;;;;;;5068261;28;20415;-75
2023/05/23 09:13:16;;;;;;;1999.90;999.90;;;23.70;99.90;;;;;;5068573;28;20554;-81
2023/05/23 09:16:01;;;;;;;1999.90;999.90;;;23.40;99.90;;;;;;5068025;28;20039;-75
2023/05/23 09:18:32;;;;;;;1999.90;999.90;;;23.20;99.90;;;;;;5065484;28;20071;-82
2023/05/23 09:20:58;;;;;;;1999.90;999.90;;;23.80;99.90;;;;;;5069486;28;20024;-74
2023/05/23 09:23:23;;;;;;;1999.90;999.90;;;23.50;99.90;;;;;;5063284;28;20044;-74
2023/05/23 09:25:49;;;;;;;1999.90;999.90;;;23.60;99.90;;;;;;5062531;28;20032;-75
2023/05/23 09:28:15;;;;;;;1999.90;999.90;;;25.00;99.90;;;;;;5053378;28;20043;-84
2023/05/23 09:30:40;;;;;;;1999.90;999.90;;;25.90;99.90;;;;;;5068857;28;20047;-74
2023/05/23 09:33:06;;;;;;;1999.90;999.90;;;26.60;99.90;;;;;;5057822;28;20097;-75
2023/05/23 09:35:32;;;;;;;1999.90;999.90;;;24.80;99.90;;;;;;5066882;28;20033;-75
2023/05/23 09:37:58;;;;;;;1999.90;999.90;;;23.60;99.90;;;;;;5060844;28;20083;-74
2023/05/23 09:40:31;;;;;;;1999.90;999.90;;;23.90;99.90;;;;;;5062469;28;20033;-84
2023/05/23 09:43:06;;;;;;;1999.90;999.90;;;25.10;99.90;;;;;;5072427;28;20132;-83
2023/05/23 09:45:32;;;;;;;1999.90;999.90;;;25.30;99.90;;;;;;5064859;28;20052;-75
2023/05/23 09:47:58;;;;;;;1999.90;999.90;;;25.10;99.90;;;;;;5069971;28;20040;-75
2023/05/23 09:50:29;;;;;;;1999.90;999.90;;;23.40;99.90;;;;;;5058301;28;20032;-75
2023/05/23 09:52:56;;;;;;;1999.90;999.90;;;22.00;99.90;;;;;;5069460;28;20099;-83
2023/05/23 09:55:22;;;;;;;1999.90;999.90;;;21.50;99.90;;;;;;5054711;28;20028;-82
2023/05/23 09:57:53;;;;;;;1999.90;999.90;;;21.60;99.90;;;;;;5061673;28;20025;-75
2023/05/23 10:00:19;;;;;;;1999.90;999.90;;;21.60;99.90;;;;;;5060833;28;20032;-83
2023/05/23 10:02:53;;;;;;;1999.90;999.90;;;21.70;99.90;;;;;;5058575;28;20029;-83
2023/05/23 10:05:43;;;;;;;1999.90;999.90;;;22.50;99.90;;;;;;5071573;28;20036;-82
2023/05/23 10:08:50;;;;;;;1999.90;999.90;;;22.70;99.90;;;;;;5070864;28;20117;-82
2023/05/23 10:11:34;;;;;;;1999.90;999.90;;;23.00;99.90;;;;;;5058333;28;20086;-74
2023/05/23 10:14:06;;;;;;;1999.90;999.90;;;22.60;99.90;;;;;;5069948;28;20119;-75
2023/05/23 10:16:45;;;;;;;1999.90;999.90;;;22.10;99.90;;;;;;5059222;28;20025;-81
2023/05/23 10:19:20;;;;;;;1999.90;999.90;;;21.80;99.90;;;;;;5072754;28;20032;-75
2023/05/23 10:21:53;;;;;;;1999.90;999.90;;;21.70;99.90;;;;;;5065180;28;20413;-75
2023/05/23 10:24:20;;;;;;;1999.90;999.90;;;21.50;99.90;;;;;;5067210;28;20078;-79
2023/05/23 10:26:46;;;;;;;1999.90;999.90;;;21.50;99.90;;;;;;5054979;28;20530;-75
2023/05/23 10:29:12;;;;;;;1999.90;999.90;;;22.20;99.90;;;;;;5067231;28;20041;-81
2023/05/23 10:31:38;;;;;;;1999.90;999.90;;;22.70;99.90;;;;;;5042259;28;20053;-76
2023/05/23 10:34:13;;;;;;;1999.90;999.90;;;22.60;99.90;;;;;;5061758;28;20079;-81
2023/05/23 10:36:58;;;;;;;1999.90;999.90;;;23.80;99.90;;;;;;5067110;28;20079;-76
2023/05/23 10:40:10;;;;;;;1999.90;999.90;;;23.40;99.90;;;;;;5056714;28;20034;-81
2023/05/23 10:42:55;;;;;;;1999.90;999.90;;;23.60;99.90;;;;;;5059606;28;21670;-81
2023/05/23 10:45:23;;;;;;;1999.90;999.90;;;23.10;99.90;;;;;;5071491;28;20121;-81
2023/05/23 10:47:51;;;;;;;1999.90;999.90;;;22.60;99.90;;;;;;5048690;28;20115;-81
2023/05/23 10:50:32;;;;;;;1999.90;999.90;;;23.40;99.90;;;;;;5070341;28;20029;-75
2023/05/23 10:53:00;;;;;;;1999.90;999.90;;;23.20;99.90;;;;;;5057418;28;20024;-76
2023/05/23 10:55:31;;;;;;;1999.90;999.90;;;22.60;99.90;;;;;;5063990;28;20029;-81
2023/05/23 10:58:18;;;;;;;1999.90;999.90;;;22.70;99.90;;;;;;5061307;28;20056;-81
2023/05/23 11:00:54;;;;;;;1999.90;999.90;;;22.90;99.90;;;;;;5057041;28;20020;-82
2023/05/23 11:03:35;;;;;;;1999.90;999.90;;;24.00;99.90;;;;;;5065185;28;20124;-76
2023/05/23 11:06:03;;;;;;;1999.90;999.90;;;24.50;99.90;;;;;;5059162;28;20075;-76
2023/05/23 11:08:41;;;;;;;1999.90;999.90;;;25.40;99.90;;;;;;5049372;28;20041;-81
2023/05/23 11:11:07;;;;;;;1999.90;999.90;;;25.10;99.90;;;;;;5047110;28;20053;-81
2023/05/23 11:13:55;;;;;;;1999.90;999.90;;;23.50;99.90;;;;;;5049763;28;20044;-84
2023/05/23 11:16:40;;;;;;;1999.90;999.90;;;23.90;99.90;;;;;;5041711;28;20025;-83
2023/05/23 11:19:19;;;;;;;1999.90;999.90;;;24.00;99.90;;;;;;5042740;28;20032;-83
2023/05/23 11:21:49;;;;;;;1999.90;999.90;;;24.60;99.90;;;;;;5034643;28;20036;-82
2023/05/23 11:24:16;;;;;;;1999.90;999.90;;;25.00;99.90;;;;;;5052531;28;20490;-81
2023/05/23 11:26:51;;;;;;;1999.90;999.90;;;24.60;99.90;;;;;;5052391;28;20037;-81
2023/05/23 11:29:16;;;;;;;1999.90;999.90;;;24.60;99.90;;;;;;5046467;28;20038;-74
2023/05/23 11:31:42;;;;;;;1999.90;999.90;;;24.60;99.90;;;;;;5041163;28;20040;-75
2023/05/23 11:34:08;;;;;;;1999.90;999.90;;;24.50;99.90;;;;;;5050330;28;20029;-82
2023/05/23 11:36:34;;;;;;;1999.90;999.90;;;24.20;99.90;;;;;;5047347;28;20025;-80
2023/05/23 11:39:03;;;;;;;1999.90;999.90;;;23.80;99.90;;;;;;5045525;28;20034;-80
2023/05/23 11:41:29;;;;;;;1999.90;999.90;;;23.60;99.90;;;;;;5057856;28;20041;-81
2023/05/23 11:43:55;;;;;;;1999.90;999.90;;;23.10;99.90;;;;;;5051054;28;20033;-74
2023/05/23 11:46:21;;;;;;;1999.90;999.90;;;23.30;99.90;;;;;;5050971;28;20025;-81
2023/05/23 11:48:47;;;;;;;1999.90;999.90;;;23.50;99.90;;;;;;5050790;28;20033;-81
2023/05/23 11:51:13;;;;;;;1999.90;999.90;;;23.40;99.90;;;;;;5050950;28;20048;-80
2023/05/23 11:53:39;;;;;;;1999.90;999.90;;;23.60;99.90;;;;;;5050513;28;20021;-79
2023/05/23 11:56:05;;;;;;;1999.90;999.90;;;23.90;99.90;;;;;;5049804;28;20032;-74
2023/05/23 11:58:36;;;;;;;1999.90;999.90;;;23.70;99.90;;;;;;5049762;28;20029;-74
2023/05/23 12:01:04;;;;;;;1999.90;999.90;;;24.30;99.90;;;;;;5035706;28;20025;-80
2023/05/23 12:03:30;;;;;;;1999.90;999.90;;;24.00;99.90;;;;;;5058484;28;20064;-81